Humboldt Bay — A8OL4 — position and weather

sailwx.info

Track history (hours):
 
Tides and Currents Weather Stations Pressure Air Temp Water Temp Dewpoint Dewpoint Depression Visibility Wind Speed Wind Dir Waves Ship Positions

Humboldt Bay

Last reported at 2016-Feb-08 20:16 UTC. Time now 2016-Feb-09 17:55 UTC.
Position N 32°29' W 014°46'.

Length 147 m; draft 7.3 m.

Type: Cargo ship. MMSI: 636013649.

Date/timePositionNaut miles runAvg speedWind from/ knotsBaromVisibWave heightAir tempDewpointWater temp
2016-Feb-08 20:16N 32°29' W 014°46'1715.7
2016-Feb-08 19:11N 32°22' W 015°04'1115.6
2016-Feb-08 18:30N 32°17' W 015°15'1615.5
2016-Feb-08 17:27N 32°10' W 015°32'3015.6
2016-Feb-08 15:30N 31°57' W 016°05'1515.7
2016-Feb-08 14:32N 31°51' W 016°21'1515.5
2016-Feb-08 13:32N 31°47' W 016°39'1915.5
2016-Feb-08 12:19N 31°42' W 017°00'  
2016-Feb-01 17:06N 16°54' W 061°10'815.2
2016-Feb-01 16:34N 16°51' W 061°18'3415.4
2016-Feb-01 14:22N 16°37' W 061°50'  
Track history (hours):
 
Tides and Currents Weather Stations Pressure Air Temp Water Temp Dewpoint Dewpoint Depression Visibility Wind Speed Wind Dir Waves Ship Positions

Humboldt Bay

Last reported at 2016-Feb-08 20:16 UTC. Time now 2016-Feb-09 17:55 UTC.
Position N 32°29' W 014°46'.

Length 147 m; draft 7.3 m.

Type: Cargo ship. MMSI: 636013649.

Date/timePositionNaut miles runAvg speedWind from/ knotsBaromVisibWave heightAir tempDewpointWater temp
2016-Feb-08 20:16N 32°29' W 014°46'1715.7
2016-Feb-08 19:11N 32°22' W 015°04'1115.6
2016-Feb-08 18:30N 32°17' W 015°15'1615.5
2016-Feb-08 17:27N 32°10' W 015°32'3015.6
2016-Feb-08 15:30N 31°57' W 016°05'1515.7
2016-Feb-08 14:32N 31°51' W 016°21'1515.5
2016-Feb-08 13:32N 31°47' W 016°39'1915.5
2016-Feb-08 12:19N 31°42' W 017°00'  
2016-Feb-01 17:06N 16°54' W 061°10'815.2
2016-Feb-01 16:34N 16°51' W 061°18'3415.4
2016-Feb-01 14:22N 16°37' W 061°50'  

Dump ship's entire track history